createdAt,value
2019-03-17T00:02:12.034Z,10.90
2019-03-17T00:04:39.465Z,10.90
2019-03-17T00:07:06.854Z,10.80
2019-03-17T00:09:34.311Z,10.80
2019-03-17T00:12:01.771Z,10.70
2019-03-17T00:14:29.226Z,10.70
2019-03-17T00:16:56.677Z,10.70
2019-03-17T00:19:24.131Z,10.70
2019-03-17T00:21:51.489Z,10.60
2019-03-17T00:24:18.942Z,10.70
2019-03-17T00:26:46.363Z,10.60
2019-03-17T00:29:13.736Z,10.60
2019-03-17T00:31:41.159Z,10.60
2019-03-17T00:34:08.531Z,10.60
2019-03-17T00:36:35.919Z,10.60
2019-03-17T00:39:05.315Z,10.60
2019-03-17T00:41:33.658Z,10.60
2019-03-17T00:44:01.004Z,10.60
2019-03-17T00:46:28.429Z,10.60
2019-03-17T00:48:55.879Z,10.60
2019-03-17T00:51:23.363Z,10.60
2019-03-17T00:53:50.820Z,10.60
2019-03-17T00:56:18.229Z,10.60
2019-03-17T00:58:45.639Z,10.50
2019-03-17T01:01:13.246Z,10.50
2019-03-17T01:03:40.695Z,10.50
2019-03-17T01:06:08.069Z,10.50
2019-03-17T01:08:35.491Z,10.50
2019-03-17T01:11:03.037Z,10.40
2019-03-17T01:13:30.501Z,10.40
2019-03-17T01:15:57.927Z,10.40
2019-03-17T01:18:25.296Z,10.40
2019-03-17T01:20:52.656Z,10.40
2019-03-17T01:23:20.249Z,10.40
2019-03-17T01:25:47.601Z,10.40
2019-03-17T01:28:14.973Z,10.30
2019-03-17T01:30:42.410Z,10.40
2019-03-17T01:33:09.863Z,10.30
2019-03-17T01:35:37.327Z,10.30
2019-03-17T01:38:04.798Z,10.30
2019-03-17T01:40:32.390Z,10.30
2019-03-17T01:42:59.707Z,10.30
2019-03-17T01:45:27.286Z,10.20
2019-03-17T01:47:54.759Z,10.30
2019-03-17T01:50:22.170Z,10.20
2019-03-17T01:53:10.753Z,10.20
2019-03-17T01:55:38.193Z,10.20
2019-03-17T01:58:05.545Z,10.20
2019-03-17T02:00:33.094Z,10.20
2019-03-17T02:03:00.462Z,10.20
2019-03-17T02:05:27.808Z,10.20
2019-03-17T02:07:55.297Z,10.20
2019-03-17T02:10:22.659Z,10.20
2019-03-17T02:12:50.106Z,10.20
2019-03-17T02:15:17.561Z,10.20
2019-03-17T02:17:45.006Z,10.20
2019-03-17T02:20:12.357Z,10.20
2019-03-17T02:22:39.814Z,10.20
2019-03-17T02:25:07.167Z,10.20
2019-03-17T02:27:34.528Z,10.20
2019-03-17T02:30:02.022Z,10.10
2019-03-17T02:32:29.506Z,10.00
2019-03-17T02:34:56.999Z,9.80
2019-03-17T02:37:24.392Z,9.70
2019-03-17T02:39:51.730Z,9.50
2019-03-17T02:42:19.164Z,9.50
2019-03-17T02:44:46.652Z,9.40
2019-03-17T02:47:14.082Z,9.30
2019-03-17T02:49:41.535Z,9.20
2019-03-17T02:52:09.086Z,9.20
2019-03-17T02:54:36.481Z,9.20
2019-03-17T02:57:03.808Z,9.20
2019-03-17T02:59:31.249Z,9.20
2019-03-17T03:01:58.718Z,9.20
2019-03-17T03:04:26.257Z,9.20
2019-03-17T03:06:53.759Z,9.20
2019-03-17T03:09:21.098Z,9.20
2019-03-17T03:11:48.549Z,9.20
2019-03-17T03:14:15.932Z,9.20
2019-03-17T03:16:43.374Z,9.20
2019-03-17T03:19:10.781Z,9.20
2019-03-17T03:21:38.234Z,9.20
2019-03-17T03:24:05.592Z,9.20
2019-03-17T03:26:33.122Z,9.20
2019-03-17T03:29:00.837Z,9.10
2019-03-17T03:31:28.271Z,9.10
2019-03-17T03:33:55.796Z,9.10
2019-03-17T03:36:23.372Z,9.00
2019-03-17T03:38:50.844Z,9.00
2019-03-17T03:41:18.232Z,9.00
2019-03-17T03:43:45.742Z,8.90
2019-03-17T03:46:15.495Z,8.90
2019-03-17T03:48:43.031Z,8.90
2019-03-17T03:51:11.215Z,8.80
2019-03-17T03:53:38.977Z,8.80
2019-03-17T03:56:06.879Z,8.70
2019-03-17T03:58:34.895Z,8.60
2019-03-17T04:01:02.870Z,8.60
2019-03-17T04:03:30.400Z,8.60
2019-03-17T04:05:57.992Z,8.50
2019-03-17T04:08:25.890Z,8.50
2019-03-17T04:10:53.829Z,8.50
2019-03-17T04:13:21.442Z,8.40
2019-03-17T04:15:48.932Z,8.40
2019-03-17T04:18:17.596Z,8.40
2019-03-17T04:20:45.032Z,8.30
2019-03-17T04:23:12.481Z,8.30
2019-03-17T04:25:39.996Z,8.30
2019-03-17T04:28:07.493Z,8.30
2019-03-17T04:30:34.928Z,8.30
2019-03-17T04:33:02.441Z,8.40
2019-03-17T04:35:29.950Z,8.30
2019-03-17T04:37:57.409Z,8.30
2019-03-17T04:40:24.893Z,8.30
2019-03-17T04:42:52.395Z,8.30
2019-03-17T04:45:19.839Z,8.30
2019-03-17T04:47:48.583Z,8.30
2019-03-17T04:50:16.099Z,8.30
2019-03-17T04:52:43.597Z,8.20
2019-03-17T04:55:11.109Z,8.20
2019-03-17T04:57:38.611Z,8.20
2019-03-17T05:00:06.563Z,8.20
2019-03-17T05:02:33.973Z,8.20
2019-03-17T05:05:01.478Z,8.10
2019-03-17T05:07:28.932Z,8.10
2019-03-17T05:09:56.349Z,8.10
2019-03-17T05:12:23.950Z,8.10
2019-03-17T05:14:51.405Z,8.10
2019-03-17T05:17:19.440Z,8.10
2019-03-17T05:19:46.891Z,8.10
2019-03-17T05:22:14.393Z,8.00
2019-03-17T05:24:41.955Z,8.00
2019-03-17T05:27:09.451Z,8.00
2019-03-17T05:29:36.967Z,8.00
2019-03-17T05:32:04.504Z,8.00
2019-03-17T05:34:31.970Z,8.00
2019-03-17T05:37:06.282Z,8.00
2019-03-17T05:39:28.692Z,8.00
2019-03-17T05:41:57.271Z,8.00
2019-03-17T05:44:24.663Z,7.90
2019-03-17T05:46:52.146Z,7.90
2019-03-17T05:49:19.627Z,7.90
2019-03-17T05:51:47.151Z,7.90
2019-03-17T05:54:14.658Z,7.90
2019-03-17T05:56:42.140Z,7.90
2019-03-17T05:59:10.060Z,8.00
2019-03-17T06:01:37.528Z,8.00
2019-03-17T06:04:04.894Z,8.00
2019-03-17T06:06:32.277Z,8.00
2019-03-17T06:08:59.872Z,8.00
2019-03-17T06:11:27.313Z,8.00
2019-03-17T06:13:54.807Z,8.00
2019-03-17T06:16:22.558Z,8.00
2019-03-17T06:18:50.039Z,8.00
2019-03-17T06:21:17.597Z,7.90
2019-03-17T06:23:45.163Z,7.90
2019-03-17T06:26:13.010Z,7.90
2019-03-17T06:28:40.917Z,7.90
2019-03-17T06:31:08.562Z,7.80
2019-03-17T06:33:36.476Z,7.80
2019-03-17T06:36:04.072Z,7.80
2019-03-17T06:38:31.598Z,7.80
2019-03-17T06:40:59.490Z,7.80
2019-03-17T06:43:27.447Z,7.80
2019-03-17T06:45:54.950Z,7.80
2019-03-17T06:48:22.451Z,7.70
2019-03-17T06:50:49.908Z,7.70
2019-03-17T06:53:17.434Z,7.70
2019-03-17T06:55:45.692Z,7.70
2019-03-17T06:58:13.168Z,7.70
2019-03-17T07:00:40.661Z,7.70
2019-03-17T07:03:08.459Z,7.70
2019-03-17T07:05:35.958Z,7.70
2019-03-17T07:08:05.603Z,7.70
2019-03-17T07:10:33.080Z,7.70
2019-03-17T07:13:00.566Z,7.70
2019-03-17T07:15:27.935Z,7.70
2019-03-17T07:17:55.550Z,7.60
2019-03-17T07:20:23.338Z,7.60
2019-03-17T07:22:50.812Z,7.60
2019-03-17T07:25:18.310Z,7.60
2019-03-17T07:27:45.817Z,7.50
2019-03-17T07:30:13.328Z,7.50
2019-03-17T07:32:41.405Z,7.50
2019-03-17T07:35:08.784Z,7.50
2019-03-17T07:37:36.275Z,7.40
2019-03-17T07:40:04.216Z,7.50
2019-03-17T07:42:32.677Z,7.50
2019-03-17T07:45:01.305Z,7.50
2019-03-17T07:47:28.852Z,7.50
2019-03-17T07:49:56.271Z,7.60
2019-03-17T07:52:23.707Z,7.60
2019-03-17T07:54:51.175Z,7.60
2019-03-17T07:57:18.634Z,7.70
2019-03-17T07:59:46.120Z,7.70
2019-03-17T08:02:13.591Z,7.70
2019-03-17T08:04:43.074Z,7.70
2019-03-17T08:07:10.230Z,7.80
2019-03-17T08:09:37.799Z,7.90
2019-03-17T08:12:08.010Z,7.90
2019-03-17T08:14:37.717Z,8.00
2019-03-17T08:17:07.193Z,8.10
2019-03-17T08:19:34.640Z,8.10
2019-03-17T08:22:02.222Z,8.20
2019-03-17T08:24:29.691Z,8.20
2019-03-17T08:26:59.456Z,8.30
2019-03-17T08:29:26.943Z,8.40
2019-03-17T08:31:54.419Z,8.60
2019-03-17T08:34:21.959Z,8.70
2019-03-17T08:36:49.544Z,8.70
2019-03-17T08:39:17.015Z,8.70
2019-03-17T08:41:44.479Z,8.70
2019-03-17T08:44:11.970Z,8.60
2019-03-17T08:46:39.445Z,8.70
2019-03-17T08:49:06.917Z,8.70
2019-03-17T08:51:34.421Z,8.80
2019-03-17T08:54:02.028Z,8.80
2019-03-17T08:56:29.635Z,8.80
2019-03-17T08:58:57.085Z,8.90
2019-03-17T09:01:24.547Z,9.00
2019-03-17T09:03:54.155Z,8.90
2019-03-17T09:06:21.546Z,8.90
2019-03-17T09:08:49.033Z,8.90
2019-03-17T09:11:16.495Z,9.00
2019-03-17T09:13:44.068Z,9.10
2019-03-17T09:16:14.584Z,9.20
2019-03-17T09:18:42.095Z,9.30
2019-03-17T09:21:09.614Z,9.30
2019-03-17T09:23:42.940Z,9.40
2019-03-17T09:26:10.409Z,9.50
2019-03-17T09:28:39.230Z,9.70
2019-03-17T09:31:07.604Z,9.40
2019-03-17T09:33:35.159Z,9.30
2019-03-17T09:36:02.634Z,9.30
2019-03-17T09:38:30.087Z,9.30
2019-03-17T09:40:57.518Z,9.00
2019-03-17T09:43:24.962Z,9.00
2019-03-17T09:45:52.434Z,8.90
2019-03-17T09:48:19.889Z,9.00
2019-03-17T09:50:47.269Z,8.90
2019-03-17T09:53:14.811Z,9.00
2019-03-17T09:55:42.276Z,9.10
2019-03-17T09:58:09.915Z,9.20
2019-03-17T10:00:37.476Z,9.20
2019-03-17T10:03:04.966Z,9.20
2019-03-17T10:05:32.442Z,9.00
2019-03-17T10:07:59.976Z,9.20
2019-03-17T10:10:27.584Z,9.40
2019-03-17T10:12:55.058Z,9.60
2019-03-17T10:15:22.959Z,9.40
2019-03-17T10:17:50.966Z,9.50
2019-03-17T10:20:18.999Z,9.80
2019-03-17T10:22:46.805Z,10.10
2019-03-17T10:25:14.531Z,10.40
2019-03-17T10:27:42.008Z,10.60
2019-03-17T10:30:14.486Z,10.70
2019-03-17T10:32:41.944Z,10.70
2019-03-17T10:35:10.142Z,10.70
2019-03-17T10:37:37.602Z,10.50
2019-03-17T10:40:06.734Z,10.30
2019-03-17T10:42:34.395Z,10.40
2019-03-17T10:45:02.049Z,10.70
2019-03-17T10:47:29.755Z,10.50
2019-03-17T10:49:57.570Z,10.40
2019-03-17T10:52:25.082Z,10.30
2019-03-17T10:54:52.618Z,10.10
2019-03-17T10:57:20.241Z,10.20
2019-03-17T10:59:47.735Z,10.40
2019-03-17T11:02:15.256Z,10.50
2019-03-17T11:04:43.001Z,10.90
2019-03-17T11:07:10.460Z,11.00
2019-03-17T11:09:37.934Z,11.10
2019-03-17T11:12:05.282Z,11.30
2019-03-17T11:14:32.708Z,11.40
2019-03-17T11:17:00.199Z,11.70
2019-03-17T11:19:27.660Z,12.10
2019-03-17T11:21:55.121Z,12.30
2019-03-17T11:24:23.504Z,12.30
2019-03-17T11:26:50.914Z,12.50
2019-03-17T11:29:18.347Z,12.80
2019-03-17T11:31:45.810Z,12.60
2019-03-17T11:34:13.155Z,12.50
2019-03-17T11:36:40.611Z,12.40
2019-03-17T11:39:08.068Z,12.10
2019-03-17T11:41:35.468Z,11.80
2019-03-17T11:44:03.055Z,11.50
2019-03-17T11:46:30.525Z,11.20
2019-03-17T11:48:57.986Z,10.70
2019-03-17T11:51:25.424Z,10.30
2019-03-17T11:53:52.874Z,10.10
2019-03-17T11:56:20.356Z,9.90
2019-03-17T11:58:47.833Z,10.00
2019-03-17T12:01:17.856Z,10.30
2019-03-17T12:03:45.755Z,10.30
2019-03-17T12:06:13.193Z,10.30
2019-03-17T12:08:40.892Z,10.10
2019-03-17T12:11:08.369Z,9.90
2019-03-17T12:13:35.847Z,10.60
2019-03-17T12:16:03.229Z,11.20
2019-03-17T12:18:30.889Z,12.00
2019-03-17T12:20:58.739Z,12.60
2019-03-17T12:23:26.185Z,13.10
2019-03-17T12:25:53.715Z,13.70
2019-03-17T12:28:21.092Z,13.90
2019-03-17T12:30:48.549Z,13.50
2019-03-17T12:33:17.546Z,12.70
2019-03-17T12:35:46.623Z,11.70
2019-03-17T12:38:15.391Z,10.90
2019-03-17T12:40:45.609Z,10.10
2019-03-17T12:43:13.416Z,9.50
2019-03-17T12:45:41.353Z,9.10
2019-03-17T12:48:09.663Z,8.90
2019-03-17T12:50:37.309Z,8.80
2019-03-17T12:53:07.630Z,8.80
2019-03-17T12:55:34.071Z,8.90
2019-03-17T12:58:01.604Z,8.90
2019-03-17T13:00:29.102Z,8.90
2019-03-17T13:02:56.644Z,8.90
2019-03-17T13:05:24.291Z,9.00
2019-03-17T13:07:51.964Z,9.00
2019-03-17T13:10:19.492Z,9.10
2019-03-17T13:12:50.215Z,9.10
2019-03-17T13:15:17.804Z,9.40
2019-03-17T13:17:45.638Z,9.40
2019-03-17T13:20:13.186Z,9.40
2019-03-17T13:22:41.303Z,9.40
2019-03-17T13:25:09.761Z,9.30
2019-03-17T13:27:37.546Z,9.20
2019-03-17T13:30:14.214Z,9.10
2019-03-17T13:32:41.811Z,9.30
2019-03-17T13:35:09.345Z,9.90
2019-03-17T13:37:38.824Z,10.00
2019-03-17T13:40:07.958Z,9.90
2019-03-17T13:42:35.601Z,10.20
2019-03-17T13:45:03.649Z,10.80
2019-03-17T13:47:31.282Z,11.00
2019-03-17T13:50:02.348Z,11.60
2019-03-17T13:52:31.668Z,11.70
2019-03-17T13:54:59.168Z,11.70
2019-03-17T13:57:26.701Z,11.30
2019-03-17T13:59:54.269Z,11.20
2019-03-17T14:02:21.698Z,10.90
2019-03-17T14:04:49.171Z,10.80
2019-03-17T14:07:16.661Z,10.80
2019-03-17T14:09:44.117Z,11.00
2019-03-17T14:12:11.551Z,11.30
2019-03-17T14:14:39.079Z,11.60
2019-03-17T14:17:06.509Z,11.30
2019-03-17T14:19:34.029Z,11.00
2019-03-17T14:22:01.980Z,10.90
2019-03-17T14:24:29.883Z,10.70
2019-03-17T14:26:58.764Z,10.50
2019-03-17T14:29:26.220Z,10.30
2019-03-17T14:31:53.592Z,10.40
2019-03-17T14:34:24.105Z,11.90
2019-03-17T14:36:51.522Z,13.40
2019-03-17T14:39:19.785Z,13.50
2019-03-17T14:41:51.651Z,13.30
2019-03-17T14:44:26.705Z,12.70
2019-03-17T14:46:58.370Z,12.40
2019-03-17T14:49:27.471Z,11.90
2019-03-17T14:51:57.586Z,12.20
2019-03-17T14:54:25.494Z,13.30
2019-03-17T14:56:52.978Z,13.20
2019-03-17T14:59:20.439Z,12.90
2019-03-17T15:01:47.928Z,11.60
2019-03-17T15:04:17.025Z,10.70
2019-03-17T15:06:44.516Z,9.80
2019-03-17T15:09:12.539Z,9.40
2019-03-17T15:11:40.272Z,9.00
2019-03-17T15:14:07.634Z,8.80
2019-03-17T15:16:37.082Z,8.60
2019-03-17T15:19:05.549Z,8.30
2019-03-17T15:21:33.675Z,8.20
2019-03-17T15:24:04.176Z,8.00
2019-03-17T15:26:31.607Z,8.00
2019-03-17T15:29:01.509Z,7.60
2019-03-17T15:31:29.264Z,7.30
2019-03-17T15:33:59.043Z,7.10
2019-03-17T15:36:26.689Z,7.00
2019-03-17T15:38:54.613Z,6.80
2019-03-17T15:41:22.062Z,6.60
2019-03-17T15:43:50.467Z,6.50
2019-03-17T15:46:19.620Z,6.40
2019-03-17T15:48:47.209Z,6.30
2019-03-17T15:51:20.475Z,6.30
2019-03-17T15:53:44.335Z,6.20
2019-03-17T15:56:11.680Z,6.20
2019-03-17T15:58:39.129Z,6.10
2019-03-17T16:01:06.602Z,6.20
2019-03-17T16:03:33.993Z,6.20
2019-03-17T16:06:01.861Z,6.30
2019-03-17T16:08:29.651Z,6.20
2019-03-17T16:10:57.101Z,6.20
2019-03-17T16:13:24.611Z,6.20
2019-03-17T16:15:52.216Z,6.30
2019-03-17T16:18:19.729Z,6.30
2019-03-17T16:20:47.175Z,6.40
2019-03-17T16:23:14.576Z,6.40
2019-03-17T16:25:42.082Z,6.50
2019-03-17T16:28:09.755Z,6.50
2019-03-17T16:30:37.256Z,6.60
2019-03-17T16:33:06.010Z,6.60
2019-03-17T16:35:33.493Z,6.60
2019-03-17T16:38:01.041Z,6.70
2019-03-17T16:40:28.583Z,6.70
2019-03-17T16:42:59.213Z,6.70
2019-03-17T16:45:26.841Z,6.70
2019-03-17T16:47:55.137Z,6.80
2019-03-17T16:50:22.522Z,6.80
2019-03-17T16:52:50.026Z,6.70
2019-03-17T16:55:17.574Z,6.80
2019-03-17T16:57:45.063Z,6.70
2019-03-17T17:00:14.805Z,6.70
2019-03-17T17:02:42.363Z,6.60
2019-03-17T17:05:10.950Z,6.60
2019-03-17T17:07:38.439Z,6.50
2019-03-17T17:10:07.497Z,6.50
2019-03-17T17:12:34.923Z,6.60
2019-03-17T17:15:05.202Z,6.60
2019-03-17T17:17:32.557Z,6.60
2019-03-17T17:19:59.980Z,6.50
2019-03-17T17:22:27.780Z,6.50
2019-03-17T17:24:55.263Z,6.60
2019-03-17T17:27:22.736Z,6.80
2019-03-17T17:29:51.618Z,6.80
2019-03-17T17:32:18.967Z,6.90
2019-03-17T17:34:46.446Z,6.90
2019-03-17T17:37:15.865Z,6.90
2019-03-17T17:39:43.595Z,6.90
2019-03-17T17:42:10.974Z,6.80
2019-03-17T17:44:38.392Z,6.80
2019-03-17T17:47:05.861Z,6.70
2019-03-17T17:49:33.317Z,6.70
2019-03-17T17:52:03.439Z,6.70
2019-03-17T17:54:30.187Z,6.60
2019-03-17T17:56:57.618Z,6.60
2019-03-17T17:59:25.170Z,6.60
2019-03-17T18:01:52.651Z,6.50
2019-03-17T18:04:20.059Z,6.50
2019-03-17T18:06:47.520Z,6.40
2019-03-17T18:09:14.948Z,6.40
2019-03-17T18:11:42.500Z,6.30
2019-03-17T18:14:09.972Z,6.30
2019-03-17T18:16:37.404Z,6.30
2019-03-17T18:19:04.870Z,6.20
2019-03-17T18:21:34.064Z,6.10
2019-03-17T18:24:01.518Z,6.00
2019-03-17T18:26:29.080Z,6.00
2019-03-17T18:28:56.560Z,6.00
2019-03-17T18:31:24.070Z,5.90
2019-03-17T18:33:51.513Z,5.90
2019-03-17T18:39:32.962Z,5.90
2019-03-17T18:42:00.390Z,5.90
2019-03-17T18:44:27.905Z,6.00
2019-03-17T18:46:55.234Z,6.00
2019-03-17T18:49:22.574Z,6.00
2019-03-17T18:51:50.044Z,6.10
2019-03-17T18:54:17.524Z,6.10
2019-03-17T18:56:44.919Z,6.00
2019-03-17T18:59:13.465Z,5.90
2019-03-17T19:01:40.918Z,5.70
2019-03-17T19:04:08.387Z,5.50
2019-03-17T19:06:35.846Z,5.30
2019-03-17T19:09:06.036Z,5.20
2019-03-17T19:11:33.716Z,5.10
2019-03-17T19:14:01.072Z,5.00
2019-03-17T19:16:28.468Z,4.90
2019-03-17T19:18:55.922Z,4.90
2019-03-17T19:21:23.363Z,4.90
2019-03-17T19:23:53.299Z,4.90
2019-03-17T19:26:21.059Z,4.90
2019-03-17T19:28:48.617Z,4.90
2019-03-17T19:31:15.972Z,4.90
2019-03-17T19:33:43.288Z,5.00
2019-03-17T19:36:10.821Z,5.00
2019-03-17T19:38:38.285Z,5.00
2019-03-17T19:41:09.375Z,5.00
2019-03-17T19:43:38.827Z,4.80
2019-03-17T19:46:06.315Z,4.80
2019-03-17T19:48:33.814Z,4.70
2019-03-17T19:51:08.961Z,4.70
2019-03-17T19:53:38.014Z,4.70
2019-03-17T19:56:06.449Z,4.60
2019-03-17T19:58:35.437Z,4.60
2019-03-17T20:01:03.601Z,4.60
2019-03-17T20:03:31.877Z,4.50
2019-03-17T20:06:02.516Z,4.50
2019-03-17T20:08:29.572Z,4.50
2019-03-17T20:10:58.235Z,4.50
2019-03-17T20:13:25.909Z,4.50
2019-03-17T20:15:53.823Z,4.50
2019-03-17T20:18:21.484Z,4.50
2019-03-17T20:20:49.517Z,4.50
2019-03-17T20:23:17.056Z,4.50
2019-03-17T20:25:44.693Z,4.50
2019-03-17T20:28:22.067Z,4.50
2019-03-17T20:30:54.108Z,4.50
2019-03-17T20:33:22.499Z,4.50
2019-03-17T20:35:54.421Z,4.50
2019-03-17T20:38:22.530Z,4.40
2019-03-17T20:40:50.613Z,4.40
2019-03-17T20:43:34.171Z,4.50
2019-03-17T20:45:49.945Z,4.40
2019-03-17T20:48:18.236Z,4.40
2019-03-17T20:50:46.443Z,4.40
2019-03-17T20:53:14.488Z,4.40
2019-03-17T20:55:44.379Z,4.40
2019-03-17T20:58:13.493Z,4.40
2019-03-17T21:00:59.039Z,4.40
2019-03-17T21:03:28.766Z,4.40
2019-03-17T21:05:57.034Z,4.30
2019-03-17T21:08:26.977Z,4.40
2019-03-17T21:10:55.869Z,4.40
2019-03-17T21:13:23.972Z,4.30
2019-03-17T21:15:52.568Z,4.30
2019-03-17T21:18:21.058Z,4.30
2019-03-17T21:20:49.237Z,4.30
2019-03-17T21:23:17.722Z,4.30
2019-03-17T21:25:45.920Z,4.30
2019-03-17T21:28:17.613Z,4.20
2019-03-17T21:30:46.061Z,4.20
2019-03-17T21:33:14.231Z,4.20
2019-03-17T21:35:43.482Z,4.20
2019-03-17T21:38:11.574Z,4.20
2019-03-17T21:40:53.056Z,4.20
2019-03-17T21:43:09.879Z,4.20
2019-03-17T21:45:38.550Z,4.20
2019-03-17T21:48:08.163Z,4.10
2019-03-17T21:50:37.183Z,4.10
2019-03-17T21:53:05.286Z,4.10
2019-03-17T21:55:36.772Z,4.10
2019-03-17T21:58:08.584Z,4.10
2019-03-17T22:00:39.378Z,4.10
2019-03-17T22:03:07.766Z,4.10
2019-03-17T22:05:35.625Z,4.10
2019-03-17T22:08:05.704Z,4.10
2019-03-17T22:10:33.969Z,4.10
2019-03-17T22:13:05.164Z,4.10
2019-03-17T22:15:32.946Z,4.00
2019-03-17T22:18:03.437Z,4.00
2019-03-17T22:20:35.649Z,4.10
2019-03-17T22:23:06.876Z,4.00
2019-03-17T22:25:34.842Z,4.00
2019-03-17T22:28:08.494Z,4.00
2019-03-17T22:30:38.948Z,3.90
2019-03-17T22:33:20.627Z,4.00
2019-03-17T22:35:50.596Z,4.00
2019-03-17T22:38:23.685Z,4.00
2019-03-17T22:40:51.296Z,3.90
2019-03-17T22:43:21.102Z,3.90
2019-03-17T22:45:49.110Z,3.90
2019-03-17T22:48:17.378Z,3.90
2019-03-17T22:50:45.353Z,3.90
2019-03-17T22:53:14.183Z,3.80
2019-03-17T22:55:42.192Z,3.80
2019-03-17T22:58:09.667Z,3.80
2019-03-17T23:00:39.851Z,3.80
2019-03-17T23:03:09.046Z,3.80
2019-03-17T23:05:36.763Z,3.80
2019-03-17T23:08:04.820Z,3.80
2019-03-17T23:10:32.996Z,3.90
2019-03-17T23:13:00.952Z,3.90
2019-03-17T23:15:29.061Z,3.90
2019-03-17T23:17:56.942Z,3.90
2019-03-17T23:20:24.727Z,3.90
2019-03-17T23:22:53.132Z,3.90
2019-03-17T23:25:21.048Z,3.90
2019-03-17T23:27:49.273Z,3.90
2019-03-17T23:30:17.270Z,3.90
2019-03-17T23:32:45.191Z,3.90
2019-03-17T23:35:14.826Z,4.00
2019-03-17T23:37:42.716Z,3.90
2019-03-17T23:40:11.574Z,3.90
2019-03-17T23:42:39.805Z,3.90
2019-03-17T23:45:08.597Z,3.90
2019-03-17T23:47:36.831Z,3.90
2019-03-17T23:50:05.633Z,4.00
2019-03-17T23:52:33.968Z,4.00
2019-03-17T23:55:02.010Z,3.90
2019-03-17T23:57:29.913Z,4.00
2019-03-17T23:59:58.282Z,4.00
